createdAt,value
2023-03-03T00:00:27.989Z,99395.00
2023-03-03T00:03:07.180Z,99396.06
2023-03-03T00:05:40.652Z,99398.97
2023-03-03T00:08:13.642Z,99402.09
2023-03-03T00:10:47.093Z,99402.81
2023-03-03T00:13:22.846Z,99411.22
2023-03-03T00:16:06.973Z,99400.25
2023-03-03T00:18:43.732Z,99406.00
2023-03-03T00:21:26.591Z,99407.72
2023-03-03T00:24:16.292Z,99411.06
2023-03-03T00:26:50.482Z,99408.56
2023-03-03T00:29:36.479Z,99407.78
2023-03-03T00:32:26.113Z,99413.03
2023-03-03T00:35:18.625Z,99409.63
2023-03-03T00:37:56.199Z,99413.75
2023-03-03T00:40:34.360Z,99404.91
2023-03-03T00:43:19.378Z,99410.25
2023-03-03T00:45:53.760Z,99410.84
2023-03-03T00:48:29.836Z,99417.47
2023-03-03T00:51:21.035Z,99416.31
2023-03-03T00:53:53.824Z,99418.75
2023-03-03T00:56:27.380Z,99418.19
2023-03-03T00:59:00.325Z,99415.84
2023-03-03T01:01:35.296Z,99417.75
2023-03-03T01:04:08.406Z,99413.78
2023-03-03T01:06:42.813Z,99419.50
2023-03-03T01:09:15.557Z,99421.16
2023-03-03T01:11:48.778Z,99416.72
2023-03-03T01:14:22.300Z,99417.41
2023-03-03T01:16:55.463Z,99422.84
2023-03-03T01:19:28.633Z,99428.25
2023-03-03T01:22:02.936Z,99428.56
2023-03-03T01:24:35.928Z,99423.00
2023-03-03T01:27:08.818Z,99409.25
2023-03-03T01:29:41.782Z,99419.50
2023-03-03T01:32:14.740Z,99415.91
2023-03-03T01:34:48.543Z,99409.97
2023-03-03T01:37:22.820Z,99415.81
2023-03-03T01:39:56.462Z,99404.94
2023-03-03T01:42:30.074Z,99401.88
2023-03-03T01:45:15.480Z,99405.81
2023-03-03T01:47:52.889Z,99409.09
2023-03-03T01:50:37.040Z,99406.34
2023-03-03T01:53:17.022Z,99404.31
2023-03-03T01:55:52.977Z,99404.88
2023-03-03T01:58:29.401Z,99407.94
2023-03-03T02:01:06.989Z,99404.50
2023-03-03T02:03:40.702Z,99397.09
2023-03-03T02:06:17.137Z,99390.69
2023-03-03T02:08:58.355Z,99392.97
2023-03-03T02:11:35.879Z,99391.34
2023-03-03T02:14:08.849Z,99389.16
2023-03-03T02:16:42.484Z,99386.94
2023-03-03T02:19:25.436Z,99389.00
2023-03-03T02:21:59.259Z,99389.41
2023-03-03T02:24:40.829Z,99394.34
2023-03-03T02:27:15.296Z,99398.13
2023-03-03T02:29:49.813Z,99396.25
2023-03-03T02:32:22.859Z,99404.84
2023-03-03T02:34:55.794Z,99408.69
2023-03-03T02:37:30.365Z,99403.34
2023-03-03T02:40:04.641Z,99397.63
2023-03-03T02:42:38.907Z,99401.78
2023-03-03T02:45:11.814Z,99402.34
2023-03-03T02:47:50.426Z,99397.09
2023-03-03T02:50:24.518Z,99401.72
2023-03-03T02:52:58.068Z,99405.84
2023-03-03T02:55:31.024Z,99411.22
2023-03-03T02:58:05.253Z,99406.41
2023-03-03T03:00:38.125Z,99405.69
2023-03-03T03:03:11.139Z,99403.28
2023-03-03T03:05:45.255Z,99392.66
2023-03-03T03:08:18.366Z,99399.22
2023-03-03T03:10:51.860Z,99395.91
2023-03-03T03:13:26.917Z,99399.06
2023-03-03T03:16:00.572Z,99395.91
2023-03-03T03:18:33.369Z,99404.25
2023-03-03T03:21:08.993Z,99408.91
2023-03-03T03:23:42.600Z,99404.41
2023-03-03T03:26:17.899Z,99409.69
2023-03-03T03:28:52.895Z,99424.31
2023-03-03T03:31:25.914Z,99427.84
2023-03-03T03:34:00.632Z,99427.19
2023-03-03T03:36:35.134Z,99426.00
2023-03-03T03:39:08.108Z,99428.16
2023-03-03T03:41:43.892Z,99430.53
2023-03-03T03:44:18.200Z,99421.53
2023-03-03T03:46:51.325Z,99418.63
2023-03-03T03:49:25.023Z,99421.19
2023-03-03T03:51:59.798Z,99426.28
2023-03-03T03:54:36.220Z,99418.34
2023-03-03T03:57:09.229Z,99420.78
2023-03-03T03:59:43.807Z,99415.19
2023-03-03T04:02:17.711Z,99421.66
2023-03-03T04:04:51.606Z,99418.38
2023-03-03T04:07:24.799Z,99414.28
2023-03-03T04:09:58.341Z,99424.50
2023-03-03T04:12:36.109Z,99423.06
2023-03-03T04:15:12.883Z,99424.66
2023-03-03T04:17:46.021Z,99428.91
2023-03-03T04:20:19.264Z,99434.78
2023-03-03T04:22:52.696Z,99434.25
2023-03-03T04:25:25.955Z,99430.56
2023-03-03T04:28:00.123Z,99443.00
2023-03-03T04:30:34.356Z,99438.66
2023-03-03T04:33:07.506Z,99427.31
2023-03-03T04:35:41.200Z,99441.38
2023-03-03T04:38:14.540Z,99432.41
2023-03-03T04:40:48.088Z,99426.47
2023-03-03T04:43:23.183Z,99431.88
2023-03-03T04:45:57.856Z,99436.03
2023-03-03T04:48:31.019Z,99441.34
2023-03-03T04:51:04.024Z,99436.22
2023-03-03T04:53:39.812Z,99445.88
2023-03-03T04:56:14.777Z,99439.91
2023-03-03T04:58:47.907Z,99448.28
2023-03-03T05:01:22.834Z,99447.66
2023-03-03T05:03:56.450Z,99454.94
2023-03-03T05:06:29.969Z,99465.38
2023-03-03T05:09:03.871Z,99463.81
2023-03-03T05:11:37.076Z,99454.22
2023-03-03T05:14:09.946Z,99455.44
2023-03-03T05:16:44.853Z,99460.56
2023-03-03T05:19:17.840Z,99467.84
2023-03-03T05:21:50.933Z,99464.53
2023-03-03T05:24:24.132Z,99467.72
2023-03-03T05:26:57.122Z,99464.34
2023-03-03T05:29:31.922Z,99465.59
2023-03-03T05:32:06.439Z,99453.66
2023-03-03T05:34:39.610Z,99463.13
2023-03-03T05:37:12.474Z,99459.88
2023-03-03T05:39:45.514Z,99464.09
2023-03-03T05:42:18.488Z,99461.66
2023-03-03T05:44:51.492Z,99466.22
2023-03-03T05:47:26.038Z,99464.44
2023-03-03T05:49:58.925Z,99466.56
2023-03-03T05:52:32.094Z,99476.69
2023-03-03T05:55:05.355Z,99484.06
2023-03-03T05:57:38.246Z,99474.47
2023-03-03T06:00:13.058Z,99483.78
2023-03-03T06:02:47.640Z,99479.47
2023-03-03T06:05:20.706Z,99484.25
2023-03-03T06:07:54.026Z,99482.19
2023-03-03T06:10:26.882Z,99485.69
2023-03-03T06:13:02.751Z,99492.97
2023-03-03T06:15:35.596Z,99486.66
2023-03-03T06:18:09.856Z,99499.63
2023-03-03T06:20:42.712Z,99492.72
2023-03-03T06:23:15.862Z,99491.91
2023-03-03T06:25:48.864Z,99496.84
2023-03-03T06:28:21.779Z,99501.78
2023-03-03T06:30:55.629Z,99506.13
2023-03-03T06:33:29.807Z,99507.06
2023-03-03T06:36:05.407Z,99509.63
2023-03-03T06:38:38.769Z,99518.50
2023-03-03T06:41:12.730Z,99527.59
2023-03-03T06:43:46.500Z,99524.34
2023-03-03T06:46:19.628Z,99534.22
2023-03-03T06:48:54.248Z,99542.34
2023-03-03T06:51:35.853Z,99538.66
2023-03-03T06:54:14.153Z,99545.81
2023-03-03T06:56:48.374Z,99560.53
2023-03-03T06:59:22.876Z,99548.72
2023-03-03T07:01:56.206Z,99556.03
2023-03-03T07:04:33.858Z,99564.91
2023-03-03T07:07:16.292Z,99560.22
2023-03-03T07:09:53.849Z,99555.94
2023-03-03T07:12:30.385Z,99554.78
2023-03-03T07:15:16.391Z,99558.31
2023-03-03T07:17:51.386Z,99561.03
2023-03-03T07:20:31.037Z,99556.34
2023-03-03T07:23:19.809Z,99551.72
2023-03-03T07:25:53.914Z,99557.75
2023-03-03T07:28:28.572Z,99562.38
2023-03-03T07:31:01.373Z,99562.38
2023-03-03T07:33:37.610Z,99574.84
2023-03-03T07:36:27.359Z,99582.63
2023-03-03T07:39:02.279Z,99586.28
2023-03-03T07:41:36.369Z,99585.47
2023-03-03T07:44:19.075Z,99589.34
2023-03-03T07:46:52.765Z,99588.19
2023-03-03T07:49:35.127Z,99598.28
2023-03-03T07:52:24.768Z,99595.47
2023-03-03T07:55:00.048Z,99599.63
2023-03-03T07:57:38.054Z,99604.31
2023-03-03T08:00:44.441Z,99603.63
2023-03-03T08:03:20.473Z,99605.97
2023-03-03T08:05:53.464Z,99613.09
2023-03-03T08:08:31.800Z,99613.78
2023-03-03T08:11:05.939Z,99623.03
2023-03-03T08:13:39.961Z,99611.91
2023-03-03T08:16:36.353Z,99604.00
2023-03-03T08:19:12.581Z,99600.72
2023-03-03T08:21:45.410Z,99608.47
2023-03-03T08:24:19.890Z,99613.88
2023-03-03T08:26:53.269Z,99607.09
2023-03-03T08:29:26.380Z,99616.75
2023-03-03T08:31:59.441Z,99614.44
2023-03-03T08:34:32.522Z,99615.81
2023-03-03T08:37:05.847Z,99617.81
2023-03-03T08:39:40.091Z,99607.53
2023-03-03T08:42:15.241Z,99612.88
2023-03-03T08:44:48.971Z,99607.25
2023-03-03T08:47:21.849Z,99600.59
2023-03-03T08:49:55.468Z,99585.84
2023-03-03T08:52:28.283Z,99587.97
2023-03-03T08:55:02.656Z,99607.50
2023-03-03T08:57:35.494Z,99601.09
2023-03-03T09:00:12.211Z,99601.47
2023-03-03T09:02:45.070Z,99608.81
2023-03-03T09:05:18.776Z,99614.94
2023-03-03T09:07:52.758Z,99608.47
2023-03-03T09:10:30.835Z,99609.97
2023-03-03T09:13:09.504Z,99614.13
2023-03-03T09:15:42.893Z,99608.47
2023-03-03T09:18:18.858Z,99613.75
2023-03-03T09:20:53.201Z,99609.38
2023-03-03T09:23:35.737Z,99613.19
2023-03-03T09:26:41.316Z,99619.19
2023-03-03T09:29:25.859Z,99620.19
2023-03-03T09:32:02.622Z,99624.44
2023-03-03T09:34:41.199Z,99630.25
2023-03-03T09:37:23.078Z,99620.53
2023-03-03T09:39:57.739Z,99623.84
2023-03-03T09:42:54.896Z,99621.34
2023-03-03T09:45:52.996Z,99617.19
2023-03-03T09:48:40.504Z,99611.63
2023-03-03T09:51:25.480Z,99621.97
2023-03-03T09:54:18.015Z,99620.88
2023-03-03T09:56:55.716Z,99613.34
2023-03-03T09:59:42.655Z,99608.53
2023-03-03T10:02:34.593Z,99609.78
2023-03-03T10:05:20.464Z,99612.13
2023-03-03T10:08:04.498Z,99607.34
2023-03-03T10:10:54.555Z,99611.66
2023-03-03T10:13:40.645Z,99614.50
2023-03-03T10:16:38.879Z,99619.28
2023-03-03T10:19:50.034Z,99626.75
2023-03-03T10:22:31.668Z,99623.88
2023-03-03T10:25:21.930Z,99625.09
2023-03-03T10:28:21.016Z,99623.25
2023-03-03T10:31:12.177Z,99630.59
2023-03-03T10:33:57.980Z,99629.66
2023-03-03T10:36:46.621Z,99634.31
2023-03-03T10:39:37.257Z,99626.22
2023-03-03T10:42:31.576Z,99631.97
2023-03-03T10:45:20.835Z,99638.19
2023-03-03T10:48:11.596Z,99641.38
2023-03-03T10:50:59.129Z,99634.00
2023-03-03T10:53:35.768Z,99642.72
2023-03-03T10:56:23.601Z,99639.22
2023-03-03T10:59:07.999Z,99633.28
2023-03-03T11:01:50.601Z,99632.47
2023-03-03T11:04:47.546Z,99622.84
2023-03-03T11:07:27.688Z,99626.28
2023-03-03T11:10:26.160Z,99626.69
2023-03-03T11:13:11.440Z,99619.72
2023-03-03T11:16:07.423Z,99619.03
2023-03-03T11:18:53.997Z,99610.59
2023-03-03T11:21:34.351Z,99611.22
2023-03-03T11:24:38.502Z,99602.91
2023-03-03T11:27:22.647Z,99610.69
2023-03-03T11:30:18.838Z,99607.81
2023-03-03T11:33:00.464Z,99610.03
2023-03-03T11:35:39.417Z,99606.75
2023-03-03T11:38:25.907Z,99608.53
2023-03-03T11:41:04.916Z,99596.97
2023-03-03T11:43:43.447Z,99596.13
2023-03-03T11:46:20.747Z,99591.06
2023-03-03T11:48:59.792Z,99590.81
2023-03-03T11:51:43.622Z,99590.03
2023-03-03T11:54:23.013Z,99593.19
2023-03-03T11:57:11.943Z,99592.41
2023-03-03T12:00:04.484Z,99588.34
2023-03-03T12:03:03.801Z,99595.47
2023-03-03T12:05:48.715Z,99589.34
2023-03-03T12:08:36.312Z,99588.09
2023-03-03T12:11:18.072Z,99585.38
2023-03-03T12:13:59.250Z,99581.19
2023-03-03T12:16:47.593Z,99575.44
2023-03-03T12:19:30.209Z,99569.28
2023-03-03T12:22:30.786Z,99557.53
2023-03-03T12:25:10.435Z,99565.06
2023-03-03T12:27:49.999Z,99551.78
2023-03-03T12:30:41.184Z,99549.25
2023-03-03T12:33:23.790Z,99532.31
2023-03-03T12:36:10.828Z,99531.97
2023-03-03T12:38:57.280Z,99529.53
2023-03-03T12:41:37.159Z,99532.53
2023-03-03T12:44:19.332Z,99535.88
2023-03-03T12:47:01.954Z,99527.94
2023-03-03T12:49:52.007Z,99535.44
2023-03-03T12:52:33.183Z,99529.91
2023-03-03T12:55:18.502Z,99518.13
2023-03-03T12:57:59.946Z,99524.06
2023-03-03T13:00:44.989Z,99513.53
2023-03-03T13:03:33.527Z,99515.56
2023-03-03T13:06:12.328Z,99511.97
2023-03-03T13:08:57.696Z,99511.97
2023-03-03T13:11:47.053Z,99507.94
2023-03-03T13:14:29.426Z,99504.66
2023-03-03T13:17:11.700Z,99506.91
2023-03-03T13:19:52.478Z,99505.50
2023-03-03T13:22:42.908Z,99508.63
2023-03-03T13:25:32.733Z,99499.47
2023-03-03T13:28:12.825Z,99508.41
2023-03-03T13:30:50.070Z,99509.09
2023-03-03T13:33:28.120Z,99500.63
2023-03-03T13:36:04.975Z,99503.94
2023-03-03T13:38:42.601Z,99497.72
2023-03-03T13:41:22.026Z,99492.53
2023-03-03T13:44:02.138Z,99498.84
2023-03-03T13:46:41.932Z,99498.84
2023-03-03T13:49:33.496Z,99495.97
2023-03-03T13:52:11.703Z,99499.16
2023-03-03T13:54:58.603Z,99484.78
2023-03-03T13:57:51.851Z,99492.50
2023-03-03T14:00:34.095Z,99483.88
2023-03-03T14:03:26.836Z,99482.88
2023-03-03T14:06:04.383Z,99482.81
2023-03-03T14:08:49.557Z,99475.97
2023-03-03T14:11:28.853Z,99479.00
2023-03-03T14:14:13.707Z,99469.53
2023-03-03T14:16:53.092Z,99468.97
2023-03-03T14:19:30.934Z,99466.97
2023-03-03T14:22:23.774Z,99464.91
2023-03-03T14:25:03.088Z,99459.38
2023-03-03T14:27:39.288Z,99456.16
2023-03-03T14:30:31.751Z,99453.16
2023-03-03T14:33:20.785Z,99466.75
2023-03-03T14:36:04.072Z,99463.44
2023-03-03T14:38:44.435Z,99465.44
2023-03-03T14:41:21.232Z,99460.09
2023-03-03T14:43:59.762Z,99453.44
2023-03-03T14:46:38.327Z,99459.03
2023-03-03T14:49:16.753Z,99463.09
2023-03-03T14:51:51.174Z,99458.69
2023-03-03T14:54:29.327Z,99455.63
2023-03-03T14:57:13.667Z,99462.50
2023-03-03T14:59:58.700Z,99460.94
2023-03-03T15:02:36.670Z,99461.00
2023-03-03T15:05:22.809Z,99456.94
2023-03-03T15:07:57.984Z,99460.53
2023-03-03T15:10:34.111Z,99452.22
2023-03-03T15:13:34.186Z,99451.75
2023-03-03T15:16:13.027Z,99448.13
2023-03-03T15:19:14.702Z,99448.53
2023-03-03T15:21:58.509Z,99451.66
2023-03-03T15:24:40.300Z,99445.47
2023-03-03T15:27:22.267Z,99456.47
2023-03-03T15:30:06.297Z,99451.66
2023-03-03T15:32:48.507Z,99450.88
2023-03-03T15:35:37.898Z,99451.25
2023-03-03T15:38:29.557Z,99453.19
2023-03-03T15:41:16.365Z,99447.63
2023-03-03T15:43:59.348Z,99440.03
2023-03-03T15:46:46.205Z,99445.50
2023-03-03T15:49:38.376Z,99453.25
2023-03-03T15:52:25.147Z,99446.41
2023-03-03T15:55:09.793Z,99447.88
2023-03-03T15:57:57.454Z,99448.53
2023-03-03T16:00:40.280Z,99447.16
2023-03-03T16:03:20.781Z,99454.31
2023-03-03T16:05:54.684Z,99451.44
2023-03-03T16:08:37.817Z,99452.50
2023-03-03T16:11:17.049Z,99446.91
2023-03-03T16:14:01.827Z,99460.28
2023-03-03T16:16:52.070Z,99461.91
2023-03-03T16:19:38.742Z,99458.25
2023-03-03T16:22:25.781Z,99462.38
2023-03-03T16:25:15.995Z,99466.53
2023-03-03T16:27:55.916Z,99469.28
2023-03-03T16:30:33.967Z,99471.28
2023-03-03T16:33:22.310Z,99464.25
2023-03-03T16:36:04.612Z,99474.59
2023-03-03T16:38:41.025Z,99475.63
2023-03-03T16:41:20.682Z,99480.94
2023-03-03T16:44:04.861Z,99474.25
2023-03-03T16:46:42.479Z,99484.56
2023-03-03T16:49:23.109Z,99485.97
2023-03-03T16:52:04.402Z,99489.38
2023-03-03T16:54:45.177Z,99488.00
2023-03-03T16:57:26.854Z,99498.50
2023-03-03T17:00:06.655Z,99502.88
2023-03-03T17:03:06.017Z,99513.00
2023-03-03T17:05:49.948Z,99500.78
2023-03-03T17:08:42.533Z,99503.28
2023-03-03T17:11:26.219Z,99514.06
2023-03-03T17:14:19.858Z,99509.75
2023-03-03T17:17:00.194Z,99509.75
2023-03-03T17:19:48.602Z,99506.97
2023-03-03T17:22:30.529Z,99508.19
2023-03-03T17:25:14.660Z,99515.72
2023-03-03T17:28:10.552Z,99520.88
2023-03-03T17:30:50.365Z,99526.41
2023-03-03T17:33:37.678Z,99530.41
2023-03-03T17:36:26.351Z,99526.00
2023-03-03T17:39:13.588Z,99533.16
2023-03-03T17:41:54.976Z,99544.22
2023-03-03T17:44:39.026Z,99548.22
2023-03-03T17:47:20.624Z,99547.41
2023-03-03T17:50:10.633Z,99551.78
2023-03-03T17:53:02.892Z,99551.09
2023-03-03T17:56:03.505Z,99549.16
2023-03-03T17:58:49.914Z,99555.38
2023-03-03T18:01:31.680Z,99554.59
2023-03-03T18:04:55.271Z,99560.81
2023-03-03T18:07:39.762Z,99565.03
2023-03-03T18:10:42.104Z,99557.06
2023-03-03T18:13:35.200Z,99573.47
2023-03-03T18:16:20.368Z,99575.09
2023-03-03T18:19:09.501Z,99570.91
2023-03-03T18:21:53.202Z,99580.94
2023-03-03T18:24:38.491Z,99574.94
2023-03-03T18:27:30.040Z,99580.63
2023-03-03T18:30:25.036Z,99585.56
2023-03-03T18:33:08.499Z,99588.81
2023-03-03T18:35:44.035Z,99583.31
2023-03-03T18:38:32.325Z,99584.63
2023-03-03T18:41:06.507Z,99592.13
2023-03-03T18:43:56.092Z,99602.47
2023-03-03T18:46:53.889Z,99594.16
2023-03-03T18:49:52.566Z,99592.47
2023-03-03T18:52:28.839Z,99595.00
2023-03-03T18:55:27.015Z,99583.91
2023-03-03T18:58:29.047Z,99595.88
2023-03-03T19:01:37.856Z,99593.66
2023-03-03T19:04:21.525Z,99599.38
2023-03-03T19:07:16.961Z,99606.09
2023-03-03T19:09:57.364Z,99605.66
2023-03-03T19:12:52.751Z,99605.84
2023-03-03T19:15:47.434Z,99606.00
2023-03-03T19:18:23.890Z,99607.66
2023-03-03T19:21:00.666Z,99600.81
2023-03-03T19:23:51.218Z,99607.50
2023-03-03T19:26:33.041Z,99611.53
2023-03-03T19:29:28.044Z,99620.78
2023-03-03T19:32:22.500Z,99632.75
2023-03-03T19:35:05.528Z,99637.34
2023-03-03T19:37:50.242Z,99634.66
2023-03-03T19:40:30.881Z,99631.59
2023-03-03T19:43:15.101Z,99634.66
2023-03-03T19:46:03.698Z,99631.19
2023-03-03T19:48:41.504Z,99627.34
2023-03-03T19:51:24.907Z,99637.44
2023-03-03T19:54:22.530Z,99635.88
2023-03-03T19:56:58.340Z,99645.75
2023-03-03T19:59:37.810Z,99643.28
2023-03-03T20:02:31.539Z,99642.50
2023-03-03T20:05:21.278Z,99649.16
2023-03-03T20:08:02.420Z,99654.53
2023-03-03T20:10:44.272Z,99666.78
2023-03-03T20:13:33.914Z,99655.06
2023-03-03T20:16:18.316Z,99660.06
2023-03-03T20:19:26.046Z,99666.78
2023-03-03T20:22:08.223Z,99665.56
2023-03-03T20:25:15.507Z,99682.09
2023-03-03T20:28:00.123Z,99674.19
2023-03-03T20:30:48.468Z,99673.16
2023-03-03T20:33:38.687Z,99670.25
2023-03-03T20:36:21.043Z,99671.44
2023-03-03T20:39:04.264Z,99661.84
2023-03-03T20:41:51.212Z,99667.94
2023-03-03T20:44:38.389Z,99675.97
2023-03-03T20:47:20.341Z,99681.38
2023-03-03T20:50:04.253Z,99688.31
2023-03-03T20:52:43.488Z,99682.16
2023-03-03T20:55:24.927Z,99682.50
2023-03-03T20:58:02.886Z,99683.63
2023-03-03T21:00:44.144Z,99687.94
2023-03-03T21:03:25.289Z,99694.19
2023-03-03T21:06:00.177Z,99687.25
2023-03-03T21:08:46.215Z,99685.41
2023-03-03T21:11:21.198Z,99681.41
2023-03-03T21:13:55.208Z,99678.97
2023-03-03T21:16:33.117Z,99682.09
2023-03-03T21:19:09.032Z,99687.44
2023-03-03T21:21:45.232Z,99683.25
2023-03-03T21:24:20.103Z,99687.50
2023-03-03T21:26:55.646Z,99690.78
2023-03-03T21:29:31.168Z,99693.03
2023-03-03T21:32:06.926Z,99684.13
2023-03-03T21:34:41.742Z,99692.47
2023-03-03T21:37:35.653Z,99684.38
2023-03-03T21:40:21.211Z,99698.72
2023-03-03T21:42:55.705Z,99692.47
2023-03-03T21:45:30.195Z,99696.03
2023-03-03T21:48:05.063Z,99693.59
2023-03-03T21:50:41.271Z,99694.03
2023-03-03T21:53:14.245Z,99701.78
2023-03-03T21:55:49.763Z,99693.34
2023-03-03T21:58:22.994Z,99697.47
2023-03-03T22:00:55.888Z,99700.22
2023-03-03T22:03:28.995Z,99693.69
2023-03-03T22:06:02.188Z,99698.38
2023-03-03T22:08:35.278Z,99698.47
2023-03-03T22:11:09.879Z,99695.41
2023-03-03T22:13:42.961Z,99683.78
2023-03-03T22:16:16.866Z,99689.28
2023-03-03T22:18:49.905Z,99690.78
2023-03-03T22:21:22.991Z,99700.44
2023-03-03T22:23:55.801Z,99682.41
2023-03-03T22:26:30.157Z,99701.28
2023-03-03T22:29:02.998Z,99694.22
2023-03-03T22:31:36.232Z,99700.66
2023-03-03T22:34:09.298Z,99703.97
2023-03-03T22:36:42.277Z,99695.25
2023-03-03T22:39:15.267Z,99697.47
2023-03-03T22:41:49.575Z,99700.34
2023-03-03T22:44:22.492Z,99708.94
2023-03-03T22:46:55.302Z,99709.59
2023-03-03T22:49:28.094Z,99711.47
2023-03-03T22:52:02.815Z,99712.84
2023-03-03T22:54:36.012Z,99714.91
2023-03-03T22:57:10.436Z,99719.84
2023-03-03T22:59:43.275Z,99707.59
2023-03-03T23:02:16.130Z,99706.34
2023-03-03T23:04:49.189Z,99706.44
2023-03-03T23:07:22.187Z,99714.31
2023-03-03T23:09:55.567Z,99712.72
2023-03-03T23:12:29.834Z,99708.19
2023-03-03T23:15:02.898Z,99709.66
2023-03-03T23:17:36.012Z,99706.44
2023-03-03T23:20:11.215Z,99715.41
2023-03-03T23:22:44.185Z,99717.94
2023-03-03T23:25:17.992Z,99711.06
2023-03-03T23:27:53.168Z,99713.13
2023-03-03T23:30:26.332Z,99714.50
2023-03-03T23:32:59.283Z,99716.34
2023-03-03T23:35:32.274Z,99714.03
2023-03-03T23:38:06.007Z,99716.56
2023-03-03T23:40:39.312Z,99721.72
2023-03-03T23:43:13.630Z,99714.28
2023-03-03T23:45:46.427Z,99715.66
2023-03-03T23:48:20.709Z,99705.25
2023-03-03T23:50:53.878Z,99722.59
2023-03-03T23:53:26.824Z,99715.53
2023-03-03T23:55:59.717Z,99718.38
2023-03-03T23:58:34.062Z,99723.44
